createdAt,value
2019-02-24T00:00:15.323Z,103522.94
2019-02-24T00:02:44.789Z,103527.25
2019-02-24T00:05:14.249Z,103524.83
2019-02-24T00:07:43.698Z,103526.81
2019-02-24T00:10:13.175Z,103521.13
2019-02-24T00:12:42.630Z,103516.05
2019-02-24T00:15:12.136Z,103520.55
2019-02-24T00:17:41.565Z,103514.47
2019-02-24T00:20:11.341Z,103513.89
2019-02-24T00:22:40.773Z,103508.77
2019-02-24T00:25:10.576Z,103520.59
2019-02-24T00:27:39.988Z,103522.36
2019-02-24T00:30:09.494Z,103523.48
2019-02-24T00:32:38.912Z,103529.17
2019-02-24T00:35:08.369Z,103532.77
2019-02-24T00:37:37.779Z,103537.96
2019-02-24T00:40:08.447Z,103534.22
2019-02-24T00:42:37.877Z,103530.21
2019-02-24T00:45:09.003Z,103537.30
2019-02-24T00:47:38.525Z,103536.66
2019-02-24T00:50:09.966Z,103530.12
2019-02-24T00:52:39.468Z,103531.29
2019-02-24T00:55:09.382Z,103534.48
2019-02-24T00:57:38.878Z,103532.99
2019-02-24T01:00:11.328Z,103528.26
2019-02-24T01:02:40.827Z,103528.47
2019-02-24T01:05:10.757Z,103524.33
2019-02-24T01:07:40.468Z,103530.47
2019-02-24T01:10:10.913Z,103536.07
2019-02-24T01:12:40.421Z,103536.81
2019-02-24T01:15:11.083Z,103541.50
2019-02-24T01:17:40.589Z,103533.24
2019-02-24T01:20:10.746Z,103527.16
2019-02-24T01:22:40.187Z,103525.58
2019-02-24T01:25:09.750Z,103537.75
2019-02-24T01:27:39.182Z,103531.63
2019-02-24T01:30:11.049Z,103533.12
2019-02-24T01:32:40.482Z,103532.97
2019-02-24T01:35:10.030Z,103531.92
2019-02-24T01:37:39.471Z,103532.27
2019-02-24T01:40:09.903Z,103537.27
2019-02-24T01:42:39.396Z,103540.24
2019-02-24T01:45:09.267Z,103545.27
2019-02-24T01:47:38.668Z,103554.67
2019-02-24T01:50:10.924Z,103555.69
2019-02-24T01:52:40.634Z,103554.53
2019-02-24T01:55:10.141Z,103553.15
2019-02-24T01:57:39.724Z,103547.64
2019-02-24T02:00:11.123Z,103546.66
2019-02-24T02:02:40.539Z,103545.72
2019-02-24T02:05:10.159Z,103541.63
2019-02-24T02:07:39.595Z,103537.88
2019-02-24T02:10:09.231Z,103541.14
2019-02-24T02:12:38.706Z,103542.33
2019-02-24T02:15:08.721Z,103537.88
2019-02-24T02:17:38.142Z,103537.05
2019-02-24T02:20:09.701Z,103547.69
2019-02-24T02:22:39.188Z,103548.58
2019-02-24T02:25:09.798Z,103544.19
2019-02-24T02:27:39.305Z,103541.13
2019-02-24T02:30:12.208Z,103536.55
2019-02-24T02:32:41.807Z,103536.47
2019-02-24T02:35:11.379Z,103543.47
2019-02-24T02:37:40.823Z,103547.91
2019-02-24T02:40:10.380Z,103551.03
2019-02-24T02:42:39.826Z,103545.22
2019-02-24T02:45:09.897Z,103539.31
2019-02-24T02:47:39.366Z,103534.02
2019-02-24T02:50:08.871Z,103526.98
2019-02-24T02:52:38.313Z,103521.42
2019-02-24T02:55:08.004Z,103524.59
2019-02-24T02:57:37.423Z,103525.98
2019-02-24T03:00:31.781Z,103532.50
2019-02-24T03:03:01.282Z,103524.91
2019-02-24T03:05:30.891Z,103543.88
2019-02-24T03:08:04.503Z,103538.38
2019-02-24T03:10:33.931Z,103532.97
2019-02-24T03:13:03.370Z,103544.34
2019-02-24T03:15:32.789Z,103545.84
2019-02-24T03:18:02.280Z,103540.17
2019-02-24T03:20:32.360Z,103540.69
2019-02-24T03:23:01.751Z,103545.76
2019-02-24T03:25:31.208Z,103551.25
2019-02-24T03:28:00.620Z,103547.47
2019-02-24T03:30:30.028Z,103548.64
2019-02-24T03:32:59.481Z,103555.51
2019-02-24T03:35:28.975Z,103562.33
2019-02-24T03:37:58.475Z,103558.97
2019-02-24T03:40:27.884Z,103550.39
2019-02-24T03:42:57.303Z,103553.31
2019-02-24T03:45:26.876Z,103555.26
2019-02-24T03:47:56.631Z,103551.50
2019-02-24T03:50:26.086Z,103562.78
2019-02-24T03:52:55.564Z,103566.56
2019-02-24T03:55:25.049Z,103559.89
2019-02-24T03:57:55.026Z,103557.92
2019-02-24T04:00:24.569Z,103563.23
2019-02-24T04:02:54.162Z,103570.03
2019-02-24T04:05:23.657Z,103572.45
2019-02-24T04:07:53.097Z,103571.13
2019-02-24T04:10:22.533Z,103560.23
2019-02-24T04:12:52.108Z,103560.69
2019-02-24T04:15:21.532Z,103566.98
2019-02-24T04:17:50.948Z,103569.54
2019-02-24T04:20:20.405Z,103567.86
2019-02-24T04:22:49.810Z,103562.54
2019-02-24T04:25:19.243Z,103567.77
2019-02-24T04:27:48.675Z,103570.67
2019-02-24T04:30:18.097Z,103576.56
2019-02-24T04:32:47.557Z,103584.41
2019-02-24T04:35:17.365Z,103597.24
2019-02-24T04:37:46.781Z,103593.06
2019-02-24T04:40:16.205Z,103592.13
2019-02-24T04:42:45.634Z,103587.41
2019-02-24T04:45:15.081Z,103591.13
2019-02-24T04:47:44.500Z,103586.53
2019-02-24T04:50:14.243Z,103596.69
2019-02-24T04:52:43.641Z,103599.82
2019-02-24T04:55:13.206Z,103613.44
2019-02-24T04:57:42.950Z,103607.97
2019-02-24T05:00:12.431Z,103610.97
2019-02-24T05:02:41.912Z,103609.96
2019-02-24T05:05:11.389Z,103616.19
2019-02-24T05:07:40.817Z,103609.53
2019-02-24T05:10:10.267Z,103608.50
2019-02-24T05:12:39.732Z,103613.11
2019-02-24T05:15:09.236Z,103614.04
2019-02-24T05:17:38.980Z,103611.88
2019-02-24T05:20:09.778Z,103624.56
2019-02-24T05:22:39.206Z,103620.55
2019-02-24T05:25:09.006Z,103615.48
2019-02-24T05:27:38.442Z,103618.38
2019-02-24T05:30:07.939Z,103616.47
2019-02-24T05:32:37.379Z,103615.16
2019-02-24T05:35:07.324Z,103617.05
2019-02-24T05:37:36.754Z,103619.20
2019-02-24T05:40:06.964Z,103613.56
2019-02-24T05:42:36.381Z,103611.77
2019-02-24T05:45:07.048Z,103607.09
2019-02-24T05:47:36.548Z,103606.64
2019-02-24T05:50:07.130Z,103601.95
2019-02-24T05:52:36.568Z,103611.72
2019-02-24T05:55:07.409Z,103617.30
2019-02-24T05:57:36.846Z,103626.13
2019-02-24T06:00:07.484Z,103628.62
2019-02-24T06:02:36.889Z,103635.77
2019-02-24T06:05:06.778Z,103629.86
2019-02-24T06:07:36.264Z,103634.23
2019-02-24T06:10:07.106Z,103628.78
2019-02-24T06:12:36.537Z,103625.25
2019-02-24T06:15:07.064Z,103626.78
2019-02-24T06:17:36.509Z,103636.30
2019-02-24T06:20:06.209Z,103630.44
2019-02-24T06:22:36.031Z,103633.06
2019-02-24T06:25:06.317Z,103629.91
2019-02-24T06:27:36.091Z,103636.20
2019-02-24T06:30:07.753Z,103635.66
2019-02-24T06:32:37.531Z,103632.64
2019-02-24T06:35:08.498Z,103626.19
2019-02-24T06:37:37.932Z,103636.36
2019-02-24T06:40:08.583Z,103647.20
2019-02-24T06:42:37.998Z,103645.93
2019-02-24T06:45:10.132Z,103637.91
2019-02-24T06:47:39.592Z,103642.28
2019-02-24T06:50:10.403Z,103651.48
2019-02-24T06:52:39.956Z,103655.46
2019-02-24T06:55:10.061Z,103661.71
2019-02-24T06:57:39.546Z,103657.09
2019-02-24T07:00:14.142Z,103661.88
2019-02-24T07:02:42.722Z,103677.03
2019-02-24T07:05:12.219Z,103687.45
2019-02-24T07:07:41.633Z,103687.56
2019-02-24T07:10:11.212Z,103691.30
2019-02-24T07:12:40.638Z,103691.73
2019-02-24T07:15:10.421Z,103684.86
2019-02-24T07:17:39.864Z,103687.08
2019-02-24T07:20:09.632Z,103688.67
2019-02-24T07:22:39.074Z,103694.30
2019-02-24T07:25:08.507Z,103690.88
2019-02-24T07:27:37.921Z,103690.53
2019-02-24T07:30:10.277Z,103694.32
2019-02-24T07:32:39.763Z,103691.73
2019-02-24T07:35:09.277Z,103682.71
2019-02-24T07:37:38.732Z,103683.05
2019-02-24T07:40:08.308Z,103684.00
2019-02-24T07:42:37.774Z,103681.92
2019-02-24T07:45:09.288Z,103675.73
2019-02-24T07:47:38.738Z,103686.52
2019-02-24T07:50:09.816Z,103690.02
2019-02-24T07:52:39.263Z,103687.16
2019-02-24T07:55:08.772Z,103683.06
2019-02-24T07:57:38.587Z,103681.73
2019-02-24T08:00:12.649Z,103677.43
2019-02-24T08:02:47.603Z,103683.07
2019-02-24T08:05:17.034Z,103688.13
2019-02-24T08:07:46.621Z,103675.77
2019-02-24T08:10:17.804Z,103666.20
2019-02-24T08:12:48.082Z,103663.44
2019-02-24T08:15:17.585Z,103656.23
2019-02-24T08:17:49.913Z,103654.08
2019-02-24T08:20:19.359Z,103660.28
2019-02-24T08:22:48.869Z,103657.09
2019-02-24T08:25:18.306Z,103655.36
2019-02-24T08:27:47.747Z,103648.82
2019-02-24T08:30:22.291Z,103649.20
2019-02-24T08:32:51.726Z,103653.56
2019-02-24T08:35:21.204Z,103652.81
2019-02-24T08:38:09.006Z,103655.86
2019-02-24T08:40:41.394Z,103658.11
2019-02-24T08:43:10.861Z,103657.33
2019-02-24T08:45:44.930Z,103654.98
2019-02-24T08:48:19.528Z,103662.31
2019-02-24T08:50:48.987Z,103661.59
2019-02-24T08:53:27.378Z,103654.73
2019-02-24T08:56:01.723Z,103656.87
2019-02-24T08:58:34.284Z,103661.47
2019-02-24T09:01:11.741Z,103648.59
2019-02-24T09:03:41.172Z,103651.58
2019-02-24T09:06:21.653Z,103655.52
2019-02-24T09:08:55.360Z,103648.56
2019-02-24T09:11:24.899Z,103648.66
2019-02-24T09:13:54.342Z,103651.92
2019-02-24T09:16:23.774Z,103645.70
2019-02-24T09:18:53.301Z,103649.52
2019-02-24T09:21:22.758Z,103653.55
2019-02-24T09:23:52.199Z,103643.41
2019-02-24T09:26:21.679Z,103649.30
2019-02-24T09:28:51.132Z,103643.77
2019-02-24T09:31:20.713Z,103640.41
2019-02-24T09:33:50.314Z,103642.89
2019-02-24T09:36:19.754Z,103645.73
2019-02-24T09:38:49.332Z,103646.02
2019-02-24T09:41:18.759Z,103651.08
2019-02-24T09:43:48.195Z,103647.61
2019-02-24T09:46:17.625Z,103655.24
2019-02-24T09:48:47.059Z,103668.23
2019-02-24T09:51:16.501Z,103667.20
2019-02-24T09:53:46.073Z,103664.34
2019-02-24T09:56:15.770Z,103668.39
2019-02-24T09:58:45.304Z,103669.58
2019-02-24T10:01:14.795Z,103666.55
2019-02-24T10:03:44.237Z,103660.74
2019-02-24T10:06:13.690Z,103661.02
2019-02-24T10:08:43.307Z,103665.80
2019-02-24T10:11:13.332Z,103663.81
2019-02-24T10:13:42.843Z,103673.95
2019-02-24T10:16:12.333Z,103671.59
2019-02-24T10:18:41.819Z,103668.88
2019-02-24T10:21:11.245Z,103668.41
2019-02-24T10:23:40.698Z,103666.66
2019-02-24T10:26:25.542Z,103661.27
2019-02-24T10:28:54.976Z,103672.61
2019-02-24T10:31:24.407Z,103676.54
2019-02-24T10:33:53.843Z,103671.09
2019-02-24T10:36:23.275Z,103666.73
2019-02-24T10:38:52.780Z,103671.64
2019-02-24T10:41:22.211Z,103675.11
2019-02-24T10:44:00.962Z,103685.14
2019-02-24T10:46:30.376Z,103693.11
2019-02-24T10:49:03.357Z,103702.84
2019-02-24T10:51:35.313Z,103702.13
2019-02-24T10:54:04.906Z,103708.34
2019-02-24T10:56:34.362Z,103705.91
2019-02-24T10:59:03.903Z,103705.80
2019-02-24T11:01:33.409Z,103706.25
2019-02-24T11:04:02.980Z,103706.02
2019-02-24T11:06:32.604Z,103697.21
2019-02-24T11:09:03.592Z,103704.37
2019-02-24T11:11:33.071Z,103699.50
2019-02-24T11:14:03.191Z,103703.88
2019-02-24T11:16:34.406Z,103707.97
2019-02-24T11:19:10.031Z,103715.75
2019-02-24T11:21:54.973Z,103709.80
2019-02-24T11:24:32.347Z,103705.38
2019-02-24T11:27:04.360Z,103703.16
2019-02-24T11:29:33.826Z,103711.59
2019-02-24T11:32:03.278Z,103704.59
2019-02-24T11:34:32.768Z,103697.94
2019-02-24T11:37:02.362Z,103699.69
2019-02-24T11:39:32.081Z,103703.56
2019-02-24T11:42:01.479Z,103703.03
2019-02-24T11:44:30.922Z,103696.16
2019-02-24T11:47:00.634Z,103704.47
2019-02-24T11:49:30.081Z,103701.97
2019-02-24T11:52:03.840Z,103703.33
2019-02-24T11:54:30.676Z,103706.56
2019-02-24T11:57:00.094Z,103710.08
2019-02-24T11:59:29.509Z,103707.78
2019-02-24T12:01:58.949Z,103707.13
2019-02-24T12:04:28.352Z,103708.84
2019-02-24T12:06:58.064Z,103706.45
2019-02-24T12:09:27.530Z,103697.73
2019-02-24T12:11:56.936Z,103695.81
2019-02-24T12:14:26.368Z,103690.02
2019-02-24T12:16:55.857Z,103688.91
2019-02-24T12:19:25.275Z,103687.84
2019-02-24T12:21:54.694Z,103683.22
2019-02-24T12:24:24.578Z,103681.45
2019-02-24T12:26:54.022Z,103679.77
2019-02-24T12:29:23.436Z,103673.75
2019-02-24T12:31:56.505Z,103673.53
2019-02-24T12:34:24.007Z,103671.88
2019-02-24T12:36:53.488Z,103674.87
2019-02-24T12:39:22.939Z,103671.22
2019-02-24T12:41:52.346Z,103665.04
2019-02-24T12:44:21.845Z,103663.90
2019-02-24T12:46:51.251Z,103660.73
2019-02-24T12:49:20.662Z,103662.08
2019-02-24T12:51:50.105Z,103658.73
2019-02-24T12:54:19.505Z,103657.80
2019-02-24T12:56:48.954Z,103659.52
2019-02-24T12:59:18.369Z,103662.56
2019-02-24T13:01:47.774Z,103658.52
2019-02-24T13:04:17.198Z,103659.59
2019-02-24T13:06:46.598Z,103658.61
2019-02-24T13:09:16.029Z,103658.23
2019-02-24T13:11:45.443Z,103647.64
2019-02-24T13:14:14.945Z,103651.44
2019-02-24T13:16:44.421Z,103658.31
2019-02-24T13:19:13.832Z,103654.37
2019-02-24T13:21:43.719Z,103654.06
2019-02-24T13:24:13.104Z,103658.33
2019-02-24T13:26:42.546Z,103654.00
2019-02-24T13:29:11.974Z,103655.11
2019-02-24T13:31:41.379Z,103659.61
2019-02-24T13:34:10.876Z,103657.14
2019-02-24T13:36:40.282Z,103650.86
2019-02-24T13:39:09.873Z,103651.75
2019-02-24T13:41:39.299Z,103649.23
2019-02-24T13:44:08.720Z,103651.65
2019-02-24T13:46:38.147Z,103643.45
2019-02-24T13:49:07.575Z,103644.80
2019-02-24T13:51:37.072Z,103651.80
2019-02-24T13:54:06.773Z,103652.03
2019-02-24T13:56:36.292Z,103655.95
2019-02-24T13:59:05.791Z,103648.09
2019-02-24T14:01:35.235Z,103646.74
2019-02-24T14:04:04.664Z,103641.66
2019-02-24T14:06:34.076Z,103637.09
2019-02-24T14:09:03.848Z,103635.16
2019-02-24T14:11:33.260Z,103638.48
2019-02-24T14:14:02.692Z,103637.00
2019-02-24T14:16:32.130Z,103635.16
2019-02-24T14:19:01.562Z,103634.35
2019-02-24T14:21:30.994Z,103630.45
2019-02-24T14:24:00.402Z,103624.92
2019-02-24T14:26:30.097Z,103630.50
2019-02-24T14:28:59.521Z,103623.67
2019-02-24T14:31:28.937Z,103622.26
2019-02-24T14:33:58.678Z,103617.42
2019-02-24T14:36:28.103Z,103615.53
2019-02-24T14:38:57.803Z,103618.45
2019-02-24T14:41:27.239Z,103617.88
2019-02-24T14:43:56.658Z,103615.36
2019-02-24T14:46:26.074Z,103615.88
2019-02-24T14:48:55.485Z,103620.17
2019-02-24T14:51:24.937Z,103622.42
2019-02-24T14:53:54.343Z,103617.58
2019-02-24T14:56:23.730Z,103617.31
2019-02-24T14:58:53.175Z,103609.52
2019-02-24T15:01:22.643Z,103606.72
2019-02-24T15:03:52.079Z,103605.45
2019-02-24T15:06:21.485Z,103600.19
2019-02-24T15:08:50.961Z,103598.27
2019-02-24T15:11:20.394Z,103596.32
2019-02-24T15:13:49.812Z,103589.20
2019-02-24T15:16:19.442Z,103593.72
2019-02-24T15:18:48.822Z,103598.38
2019-02-24T15:21:20.346Z,103593.92
2019-02-24T15:23:49.849Z,103589.41
2019-02-24T15:26:19.244Z,103590.48
2019-02-24T15:28:48.699Z,103594.48
2019-02-24T15:31:18.111Z,103590.78
2019-02-24T15:33:47.592Z,103589.22
2019-02-24T15:36:17.023Z,103588.10
2019-02-24T15:38:46.429Z,103595.61
2019-02-24T15:41:15.853Z,103594.56
2019-02-24T15:43:45.273Z,103586.14
2019-02-24T15:46:14.720Z,103581.56
2019-02-24T15:48:44.143Z,103584.58
2019-02-24T15:51:13.615Z,103589.84
2019-02-24T15:53:43.039Z,103589.81
2019-02-24T15:56:12.434Z,103583.22
2019-02-24T15:58:41.863Z,103588.08
2019-02-24T16:01:11.294Z,103578.25
2019-02-24T16:03:40.695Z,103582.08
2019-02-24T16:06:10.200Z,103587.39
2019-02-24T16:08:39.689Z,103581.22
2019-02-24T16:11:09.128Z,103587.25
2019-02-24T16:13:38.543Z,103574.30
2019-02-24T16:16:07.954Z,103579.14
2019-02-24T16:18:37.539Z,103580.31
2019-02-24T16:21:06.957Z,103583.34
2019-02-24T16:23:36.387Z,103582.83
2019-02-24T16:26:05.797Z,103588.47
2019-02-24T16:28:35.218Z,103584.76
2019-02-24T16:31:04.632Z,103576.53
2019-02-24T16:33:34.301Z,103580.30
2019-02-24T16:36:04.012Z,103584.84
2019-02-24T16:38:33.415Z,103586.97
2019-02-24T16:41:02.843Z,103585.08
2019-02-24T16:43:32.245Z,103585.48
2019-02-24T16:46:01.719Z,103584.67
2019-02-24T16:48:31.173Z,103582.51
2019-02-24T16:51:00.635Z,103590.89
2019-02-24T16:53:30.064Z,103588.70
2019-02-24T16:55:59.474Z,103587.19
2019-02-24T16:58:28.864Z,103589.92
2019-02-24T17:00:58.295Z,103589.44
2019-02-24T17:03:27.704Z,103593.86
2019-02-24T17:05:57.157Z,103599.73
2019-02-24T17:08:26.593Z,103599.28
2019-02-24T17:10:55.995Z,103603.33
2019-02-24T17:13:25.427Z,103607.32
2019-02-24T17:15:55.232Z,103611.38
2019-02-24T17:18:24.714Z,103610.95
2019-02-24T17:20:54.130Z,103604.00
2019-02-24T17:23:23.602Z,103609.26
2019-02-24T17:25:53.320Z,103609.33
2019-02-24T17:28:22.748Z,103613.11
2019-02-24T17:30:53.879Z,103618.79
2019-02-24T17:33:29.752Z,103623.74
2019-02-24T17:35:54.541Z,103630.48
2019-02-24T17:38:23.960Z,103624.02
2019-02-24T17:40:53.367Z,103626.81
2019-02-24T17:43:22.827Z,103625.84
2019-02-24T17:45:52.246Z,103634.33
2019-02-24T17:48:21.739Z,103637.55
2019-02-24T17:50:51.232Z,103642.61
2019-02-24T17:53:20.639Z,103644.28
2019-02-24T17:55:50.091Z,103647.33
2019-02-24T17:58:19.571Z,103649.34
2019-02-24T18:00:50.641Z,103649.65
2019-02-24T18:03:20.072Z,103643.99
2019-02-24T18:05:49.514Z,103641.03
2019-02-24T18:08:27.918Z,103645.14
2019-02-24T18:10:50.365Z,103644.53
2019-02-24T18:13:19.798Z,103645.22
2019-02-24T18:15:49.198Z,103654.25
2019-02-24T18:18:18.646Z,103651.93
2019-02-24T18:20:48.048Z,103645.94
2019-02-24T18:23:17.514Z,103644.22
2019-02-24T18:25:46.976Z,103645.17
2019-02-24T18:28:16.456Z,103648.78
2019-02-24T18:30:46.196Z,103647.73
2019-02-24T18:33:15.594Z,103647.03
2019-02-24T18:35:45.296Z,103645.32
2019-02-24T18:38:14.711Z,103653.29
2019-02-24T18:40:44.195Z,103643.18
2019-02-24T18:43:13.639Z,103643.39
2019-02-24T18:45:43.045Z,103639.00
2019-02-24T18:48:12.726Z,103647.16
2019-02-24T18:50:42.192Z,103651.15
2019-02-24T18:53:11.575Z,103647.62
2019-02-24T18:55:41.005Z,103653.90
2019-02-24T18:58:11.010Z,103652.97
2019-02-24T19:00:40.508Z,103654.10
2019-02-24T19:03:09.986Z,103652.76
2019-02-24T19:05:39.411Z,103656.78
2019-02-24T19:08:08.823Z,103662.45
2019-02-24T19:10:38.233Z,103659.03
2019-02-24T19:13:07.688Z,103661.35
2019-02-24T19:15:37.201Z,103663.55
2019-02-24T19:18:06.624Z,103666.98
2019-02-24T19:20:36.046Z,103662.42
2019-02-24T19:23:05.522Z,103664.27
2019-02-24T19:25:34.955Z,103657.73
2019-02-24T19:28:04.350Z,103662.03
2019-02-24T19:30:33.761Z,103662.80
2019-02-24T19:33:03.186Z,103660.69
2019-02-24T19:35:32.676Z,103653.45
2019-02-24T19:38:02.103Z,103654.27
2019-02-24T19:40:31.520Z,103661.15
2019-02-24T19:43:00.973Z,103663.92
2019-02-24T19:45:30.569Z,103658.77
2019-02-24T19:48:00.110Z,103666.75
2019-02-24T19:50:29.527Z,103677.22
2019-02-24T19:52:59.290Z,103671.44
2019-02-24T19:55:28.722Z,103668.74
2019-02-24T19:57:58.136Z,103676.91
2019-02-24T20:00:27.904Z,103679.23
2019-02-24T20:02:57.328Z,103678.93
2019-02-24T20:05:26.735Z,103679.30
2019-02-24T20:07:56.177Z,103687.69
2019-02-24T20:10:27.378Z,103682.47
2019-02-24T20:12:56.852Z,103687.91
2019-02-24T20:15:26.279Z,103693.84
2019-02-24T20:17:55.686Z,103696.73
2019-02-24T20:20:25.113Z,103698.70
2019-02-24T20:22:54.523Z,103704.02
2019-02-24T20:25:24.560Z,103698.93
2019-02-24T20:27:53.981Z,103695.84
2019-02-24T20:30:30.204Z,103697.29
2019-02-24T20:32:59.687Z,103692.62
2019-02-24T20:35:29.179Z,103687.67
2019-02-24T20:37:58.687Z,103697.72
2019-02-24T20:40:28.085Z,103696.73
2019-02-24T20:42:57.485Z,103700.47
2019-02-24T20:45:29.074Z,103701.05
2019-02-24T20:47:58.123Z,103702.78
2019-02-24T20:50:33.922Z,103697.67
2019-02-24T20:53:03.604Z,103706.05
2019-02-24T20:55:33.013Z,103705.00
2019-02-24T20:58:02.447Z,103708.05
2019-02-24T21:00:45.294Z,103705.78
2019-02-24T21:03:14.725Z,103712.30
2019-02-24T21:05:44.130Z,103719.27
2019-02-24T21:08:13.626Z,103722.00
2019-02-24T21:10:43.035Z,103725.44
2019-02-24T21:13:12.497Z,103720.39
2019-02-24T21:15:41.938Z,103723.41
2019-02-24T21:18:11.418Z,103726.20
2019-02-24T21:20:41.004Z,103730.83
2019-02-24T21:23:10.431Z,103732.58
2019-02-24T21:25:40.136Z,103731.22
2019-02-24T21:28:09.691Z,103729.16
2019-02-24T21:30:39.266Z,103727.39
2019-02-24T21:33:08.678Z,103730.18
2019-02-24T21:35:38.087Z,103737.16
2019-02-24T21:38:07.493Z,103732.52
2019-02-24T21:40:37.051Z,103731.72
2019-02-24T21:43:06.517Z,103728.81
2019-02-24T21:45:35.943Z,103730.95
2019-02-24T21:48:05.430Z,103736.87
2019-02-24T21:50:34.909Z,103733.16
2019-02-24T21:53:04.325Z,103736.59
2019-02-24T21:55:33.737Z,103731.80
2019-02-24T21:58:04.426Z,103722.71
2019-02-24T22:00:34.043Z,103724.48
2019-02-24T22:03:03.542Z,103725.06
2019-02-24T22:05:33.127Z,103720.23
2019-02-24T22:08:02.561Z,103722.33
2019-02-24T22:10:31.985Z,103725.31
2019-02-24T22:13:01.393Z,103726.25
2019-02-24T22:15:30.832Z,103726.85
2019-02-24T22:18:00.276Z,103727.00
2019-02-24T22:20:29.690Z,103726.56
2019-02-24T22:22:59.169Z,103718.93
2019-02-24T22:25:28.602Z,103712.92
2019-02-24T22:27:58.040Z,103719.23
2019-02-24T22:30:27.448Z,103714.30
2019-02-24T22:32:56.844Z,103716.44
2019-02-24T22:35:26.335Z,103715.78
2019-02-24T22:37:55.739Z,103711.59
2019-02-24T22:40:25.223Z,103711.02
2019-02-24T22:46:22.180Z,103714.41
2019-02-24T22:48:51.592Z,103714.57
2019-02-24T22:51:21.042Z,103715.49
2019-02-24T22:53:50.467Z,103713.47
2019-02-24T22:56:19.908Z,103714.47
2019-02-24T22:58:49.346Z,103715.34
2019-02-24T23:01:22.666Z,103715.03
2019-02-24T23:03:52.202Z,103714.59
2019-02-24T23:06:21.686Z,103717.89
2019-02-24T23:08:51.129Z,103723.30
2019-02-24T23:11:20.548Z,103718.55
2019-02-24T23:13:50.009Z,103714.83
2019-02-24T23:16:19.495Z,103716.44
2019-02-24T23:18:48.932Z,103713.77
2019-02-24T23:21:18.352Z,103710.19
2019-02-24T23:23:47.857Z,103710.90
2019-02-24T23:26:17.337Z,103713.77
2019-02-24T23:28:46.772Z,103711.89
2019-02-24T23:31:16.184Z,103710.54
2019-02-24T23:33:45.708Z,103706.99
2019-02-24T23:36:15.242Z,103713.33
2019-02-24T23:38:44.716Z,103718.11
2019-02-24T23:41:14.485Z,103712.28
2019-02-24T23:43:43.913Z,103716.81
2019-02-24T23:46:13.373Z,103714.99
2019-02-24T23:48:42.791Z,103707.65
2019-02-24T23:51:12.591Z,103701.71
2019-02-24T23:53:42.096Z,103703.33
2019-02-24T23:56:11.601Z,103702.97
2019-02-24T23:58:41.208Z,103710.00
